sensor_id;sensor_type;location;lat;lon;timestamp;pressure;altitude;pressure_sealevel;temperature;humidity
54900;BME280;40801;41.924;25.562;2022-09-02T00:00:04;99163.03;;;25.62;64.92
54900;BME280;40801;41.924;25.562;2022-09-02T00:02:31;99162.50;;;25.37;67.99
54900;BME280;40801;41.924;25.562;2022-09-02T00:04:57;99158.88;;;25.43;66.27
54900;BME280;40801;41.924;25.562;2022-09-02T00:07:22;99158.06;;;25.46;66.03
54900;BME280;40801;41.924;25.562;2022-09-02T00:09:47;99153.66;;;25.52;65.46
54900;BME280;40801;41.924;25.562;2022-09-02T00:12:13;99161.91;;;25.56;65.76
54900;BME280;40801;41.924;25.562;2022-09-02T00:14:38;99159.66;;;25.47;66.25
54900;BME280;40801;41.924;25.562;2022-09-02T00:17:04;99162.78;;;25.49;66.24
54900;BME280;40801;41.924;25.562;2022-09-02T00:19:30;99165.97;;;25.44;66.62
54900;BME280;40801;41.924;25.562;2022-09-02T00:21:56;99162.03;;;25.45;66.56
54900;BME280;40801;41.924;25.562;2022-09-02T00:24:23;99158.44;;;25.48;66.28
54900;BME280;40801;41.924;25.562;2022-09-02T00:26:49;99152.16;;;25.44;66.39
54900;BME280;40801;41.924;25.562;2022-09-02T00:29:15;99159.66;;;25.47;66.15
54900;BME280;40801;41.924;25.562;2022-09-02T00:31:42;99161.63;;;25.47;66.24
54900;BME280;40801;41.924;25.562;2022-09-02T00:34:09;99158.06;;;25.46;66.55
54900;BME280;40801;41.924;25.562;2022-09-02T00:36:34;99161.22;;;25.48;66.17
54900;BME280;40801;41.924;25.562;2022-09-02T00:39:00;99154.91;;;25.44;66.79
54900;BME280;40801;41.924;25.562;2022-09-02T00:41:27;99154.91;;;25.48;66.56
54900;BME280;40801;41.924;25.562;2022-09-02T00:43:57;99150.94;;;25.49;66.51
54900;BME280;40801;41.924;25.562;2022-09-02T00:46:25;99150.53;;;25.50;66.41
54900;BME280;40801;41.924;25.562;2022-09-02T00:51:28;99156.06;;;25.50;66.67
54900;BME280;40801;41.924;25.562;2022-09-02T00:53:54;99147.81;;;25.47;66.68
54900;BME280;40801;41.924;25.562;2022-09-02T00:56:25;99151.38;;;25.47;66.83
54900;BME280;40801;41.924;25.562;2022-09-02T00:58:52;99154.13;;;25.47;66.52
54900;BME280;40801;41.924;25.562;2022-09-02T01:01:18;99156.53;;;25.42;66.72
54900;BME280;40801;41.924;25.562;2022-09-02T01:03:44;99155.38;;;25.39;66.73
54900;BME280;40801;41.924;25.562;2022-09-02T01:06:11;99153.06;;;25.34;67.33
54900;BME280;40801;41.924;25.562;2022-09-02T01:08:43;99157.00;;;25.33;67.40
54900;BME280;40801;41.924;25.562;2022-09-02T01:11:10;99161.75;;;25.32;67.27
54900;BME280;40801;41.924;25.562;2022-09-02T01:13:39;99162.53;;;25.33;67.52
54900;BME280;40801;41.924;25.562;2022-09-02T01:16:39;99149.50;;;25.33;67.86
54900;BME280;40801;41.924;25.562;2022-09-02T01:19:11;99151.94;;;25.28;67.64
54900;BME280;40801;41.924;25.562;2022-09-02T01:21:45;99153.53;;;25.25;68.03
54900;BME280;40801;41.924;25.562;2022-09-02T01:24:11;99139.78;;;25.22;67.35
54900;BME280;40801;41.924;25.562;2022-09-02T01:26:36;99153.16;;;25.23;67.18
54900;BME280;40801;41.924;25.562;2022-09-02T01:29:02;99153.25;;;25.13;68.03
54900;BME280;40801;41.924;25.562;2022-09-02T01:31:28;99145.44;;;25.04;68.44
54900;BME280;40801;41.924;25.562;2022-09-02T01:33:53;99151.41;;;24.99;68.55
54900;BME280;40801;41.924;25.562;2022-09-02T01:36:19;99143.50;;;24.97;68.44
54900;BME280;40801;41.924;25.562;2022-09-02T01:38:45;99155.75;;;25.00;68.37
54900;BME280;40801;41.924;25.562;2022-09-02T01:41:10;99155.34;;;24.98;68.68
54900;BME280;40801;41.924;25.562;2022-09-02T01:43:36;99152.59;;;24.94;68.57
54900;BME280;40801;41.924;25.562;2022-09-02T01:46:01;99144.78;;;24.86;68.94
54900;BME280;40801;41.924;25.562;2022-09-02T01:48:27;99142.00;;;24.86;68.99
54900;BME280;40801;41.924;25.562;2022-09-02T01:50:56;99137.31;;;24.83;69.10
54900;BME280;40801;41.924;25.562;2022-09-02T01:53:22;99135.38;;;24.80;69.46
54900;BME280;40801;41.924;25.562;2022-09-02T01:55:48;99142.91;;;24.76;69.76
54900;BME280;40801;41.924;25.562;2022-09-02T01:58:13;99139.75;;;24.74;69.50
54900;BME280;40801;41.924;25.562;2022-09-02T02:00:39;99141.34;;;24.71;69.95
54900;BME280;40801;41.924;25.562;2022-09-02T02:03:04;99140.97;;;24.69;69.93
54900;BME280;40801;41.924;25.562;2022-09-02T02:05:30;99144.19;;;24.60;70.55
54900;BME280;40801;41.924;25.562;2022-09-02T02:07:56;99145.38;;;24.63;70.08
54900;BME280;40801;41.924;25.562;2022-09-02T02:10:22;99144.59;;;24.62;70.07
54900;BME280;40801;41.924;25.562;2022-09-02T02:12:47;99142.22;;;24.57;70.33
54900;BME280;40801;41.924;25.562;2022-09-02T02:15:18;99148.59;;;24.51;70.96
54900;BME280;40801;41.924;25.562;2022-09-02T02:17:44;99142.75;;;24.42;71.71
54900;BME280;40801;41.924;25.562;2022-09-02T02:20:10;99134.53;;;24.31;72.08
54900;BME280;40801;41.924;25.562;2022-09-02T02:22:39;99141.22;;;24.33;71.85
54900;BME280;40801;41.924;25.562;2022-09-02T02:25:05;99142.38;;;24.36;71.66
54900;BME280;40801;41.924;25.562;2022-09-02T02:27:31;99142.03;;;24.23;72.35
54900;BME280;40801;41.924;25.562;2022-09-02T02:29:57;99149.91;;;24.21;72.77
54900;BME280;40801;41.924;25.562;2022-09-02T02:32:23;99149.50;;;24.23;72.90
54900;BME280;40801;41.924;25.562;2022-09-02T02:34:50;99145.22;;;24.15;73.40
54900;BME280;40801;41.924;25.562;2022-09-02T02:37:15;99140.47;;;24.19;72.99
54900;BME280;40801;41.924;25.562;2022-09-02T02:39:41;99147.19;;;24.18;72.66
54900;BME280;40801;41.924;25.562;2022-09-02T02:42:09;99147.19;;;24.14;72.76
54900;BME280;40801;41.924;25.562;2022-09-02T02:44:38;99152.72;;;24.10;72.94
54900;BME280;40801;41.924;25.562;2022-09-02T02:47:06;99149.94;;;24.14;72.78
54900;BME280;40801;41.924;25.562;2022-09-02T02:49:36;99150.72;;;24.15;73.02
54900;BME280;40801;41.924;25.562;2022-09-02T02:52:02;99152.38;;;24.01;73.83
54900;BME280;40801;41.924;25.562;2022-09-02T02:54:28;99142.19;;;23.88;74.59
54900;BME280;40801;41.924;25.562;2022-09-02T02:56:53;99148.06;;;23.93;74.27
54900;BME280;40801;41.924;25.562;2022-09-02T02:59:19;99150.47;;;23.84;74.58
54900;BME280;40801;41.924;25.562;2022-09-02T03:01:44;99150.84;;;23.86;74.33
54900;BME280;40801;41.924;25.562;2022-09-02T03:04:09;99147.31;;;23.86;74.35
54900;BME280;40801;41.924;25.562;2022-09-02T03:06:35;99147.69;;;23.91;73.80
54900;BME280;40801;41.924;25.562;2022-09-02T03:09:01;99146.16;;;23.83;74.26
54900;BME280;40801;41.924;25.562;2022-09-02T03:11:26;99139.81;;;23.90;73.63
54900;BME280;40801;41.924;25.562;2022-09-02T03:13:53;99150.84;;;23.86;74.08
54900;BME280;40801;41.924;25.562;2022-09-02T03:16:18;99143.75;;;23.89;73.61
54900;BME280;40801;41.924;25.562;2022-09-02T03:18:48;99147.31;;;23.89;73.67
54900;BME280;40801;41.924;25.562;2022-09-02T03:21:13;99150.44;;;23.91;73.69
54900;BME280;40801;41.924;25.562;2022-09-02T03:23:40;99150.06;;;23.89;74.05
54900;BME280;40801;41.924;25.562;2022-09-02T03:26:15;99152.00;;;23.92;74.17
54900;BME280;40801;41.924;25.562;2022-09-02T03:28:41;99154.00;;;23.85;74.05
54900;BME280;40801;41.924;25.562;2022-09-02T03:31:07;99159.53;;;23.85;74.49
54900;BME280;40801;41.924;25.562;2022-09-02T03:33:37;99148.84;;;23.94;73.75
54900;BME280;40801;41.924;25.562;2022-09-02T03:36:02;99147.66;;;23.95;73.84
54900;BME280;40801;41.924;25.562;2022-09-02T03:38:28;99145.28;;;23.97;73.96
54900;BME280;40801;41.924;25.562;2022-09-02T03:40:53;99148.81;;;24.04;73.24
54900;BME280;40801;41.924;25.562;2022-09-02T03:43:19;99148.44;;;23.99;73.41
54900;BME280;40801;41.924;25.562;2022-09-02T03:45:44;99151.59;;;24.01;73.51
54900;BME280;40801;41.924;25.562;2022-09-02T03:48:12;99155.53;;;24.00;73.59
54900;BME280;40801;41.924;25.562;2022-09-02T03:50:39;99163.00;;;23.99;73.61
54900;BME280;40801;41.924;25.562;2022-09-02T03:53:06;99153.16;;;23.98;73.71
54900;BME280;40801;41.924;25.562;2022-09-02T03:55:33;99159.81;;;24.08;73.15
54900;BME280;40801;41.924;25.562;2022-09-02T03:58:00;99158.63;;;24.13;72.91
54900;BME280;40801;41.924;25.562;2022-09-02T04:00:26;99161.44;;;24.02;73.50
54900;BME280;40801;41.924;25.562;2022-09-02T04:02:54;99166.16;;;23.98;73.89
54900;BME280;40801;41.924;25.562;2022-09-02T04:05:20;99167.72;;;24.02;73.34
54900;BME280;40801;41.924;25.562;2022-09-02T04:07:47;99164.56;;;24.07;73.10
54900;BME280;40801;41.924;25.562;2022-09-02T04:10:15;99174.75;;;24.10;72.86
54900;BME280;40801;41.924;25.562;2022-09-02T04:12:40;99178.28;;;24.15;72.62
54900;BME280;40801;41.924;25.562;2022-09-02T04:15:09;99169.63;;;24.16;72.57
54900;BME280;40801;41.924;25.562;2022-09-02T04:17:39;99177.06;;;24.23;72.60
54900;BME280;40801;41.924;25.562;2022-09-02T04:20:07;99169.56;;;24.23;72.24
54900;BME280;40801;41.924;25.562;2022-09-02T04:22:33;99182.97;;;24.21;72.38
54900;BME280;40801;41.924;25.562;2022-09-02T04:24:59;99182.94;;;24.25;72.52
54900;BME280;40801;41.924;25.562;2022-09-02T04:27:24;99181.00;;;24.22;72.28
54900;BME280;40801;41.924;25.562;2022-09-02T04:29:50;99186.09;;;24.27;72.42
54900;BME280;40801;41.924;25.562;2022-09-02T04:32:15;99188.06;;;24.33;71.91
54900;BME280;40801;41.924;25.562;2022-09-02T04:34:41;99186.88;;;24.38;71.97
54900;BME280;40801;41.924;25.562;2022-09-02T04:37:06;99183.69;;;24.43;71.74
54900;BME280;40801;41.924;25.562;2022-09-02T04:39:32;99185.19;;;24.51;71.38
54900;BME280;40801;41.924;25.562;2022-09-02T04:41:57;99190.69;;;24.55;71.39
54900;BME280;40801;41.924;25.562;2022-09-02T04:44:23;99189.16;;;24.50;71.26
54900;BME280;40801;41.924;25.562;2022-09-02T04:46:50;99191.88;;;24.61;70.93
54900;BME280;40801;41.924;25.562;2022-09-02T04:49:15;99191.47;;;24.62;70.51
54900;BME280;40801;41.924;25.562;2022-09-02T04:51:41;99198.19;;;24.54;71.12
54900;BME280;40801;41.924;25.562;2022-09-02T04:54:06;99193.47;;;24.51;71.47
54900;BME280;40801;41.924;25.562;2022-09-02T04:56:32;99195.03;;;24.52;71.28
54900;BME280;40801;41.924;25.562;2022-09-02T04:58:58;99200.19;;;24.50;71.30
54900;BME280;40801;41.924;25.562;2022-09-02T05:01:27;99207.25;;;24.58;71.13
54900;BME280;40801;41.924;25.562;2022-09-02T05:03:53;99206.81;;;24.63;71.05
54900;BME280;40801;41.924;25.562;2022-09-02T05:06:22;99203.53;;;24.79;70.51
54900;BME280;40801;41.924;25.562;2022-09-02T05:08:47;99210.63;;;24.80;70.92
54900;BME280;40801;41.924;25.562;2022-09-02T05:11:17;99206.22;;;24.93;70.04
54900;BME280;40801;41.924;25.562;2022-09-02T05:13:44;99205.81;;;24.98;69.44
54900;BME280;40801;41.924;25.562;2022-09-02T05:16:18;99208.88;;;25.08;69.27
54900;BME280;40801;41.924;25.562;2022-09-02T05:18:44;99215.56;;;25.10;69.06
54900;BME280;40801;41.924;25.562;2022-09-02T05:21:11;99204.53;;;25.10;68.96
54900;BME280;40801;41.924;25.562;2022-09-02T05:23:36;99199.06;;;25.03;69.26
54900;BME280;40801;41.924;25.562;2022-09-02T05:26:03;99205.34;;;25.07;69.06
54900;BME280;40801;41.924;25.562;2022-09-02T05:28:29;99216.84;;;24.95;69.44
54900;BME280;40801;41.924;25.562;2022-09-02T05:30:54;99216.09;;;24.91;69.54
54900;BME280;40801;41.924;25.562;2022-09-02T05:33:19;99201.09;;;24.92;69.17
54900;BME280;40801;41.924;25.562;2022-09-02T05:35:47;99212.06;;;25.06;68.64
54900;BME280;40801;41.924;25.562;2022-09-02T05:38:12;99212.41;;;25.12;69.06
54900;BME280;40801;41.924;25.562;2022-09-02T05:40:39;99204.50;;;25.14;68.59
54900;BME280;40801;41.924;25.562;2022-09-02T05:43:05;99198.50;;;25.26;68.47
54900;BME280;40801;41.924;25.562;2022-09-02T05:45:30;99199.47;;;25.50;67.78
54900;BME280;40801;41.924;25.562;2022-09-02T05:47:56;99199.97;;;25.79;67.26
54900;BME280;40801;41.924;25.562;2022-09-02T05:50:21;99196.16;;;26.03;66.26
54900;BME280;40801;41.924;25.562;2022-09-02T05:52:49;99192.47;;;26.13;65.49
54900;BME280;40801;41.924;25.562;2022-09-02T05:55:15;99191.94;;;26.22;65.36
54900;BME280;40801;41.924;25.562;2022-09-02T05:57:41;99192.94;;;26.39;64.65
54900;BME280;40801;41.924;25.562;2022-09-02T06:00:08;99198.19;;;26.60;63.78
54900;BME280;40801;41.924;25.562;2022-09-02T06:02:33;99192.56;;;26.67;63.66
54900;BME280;40801;41.924;25.562;2022-09-02T06:04:59;99192.25;;;26.85;63.39
54900;BME280;40801;41.924;25.562;2022-09-02T06:07:25;99199.91;;;27.04;62.80
54900;BME280;40801;41.924;25.562;2022-09-02T06:09:50;99188.22;;;27.16;61.82
54900;BME280;40801;41.924;25.562;2022-09-02T06:12:17;99192.31;;;27.55;61.51
54900;BME280;40801;41.924;25.562;2022-09-02T06:14:45;99184.28;;;27.84;60.99
54900;BME280;40801;41.924;25.562;2022-09-02T06:17:12;99179.91;;;28.03;59.62
54900;BME280;40801;41.924;25.562;2022-09-02T06:19:37;99191.50;;;28.18;59.50
54900;BME280;40801;41.924;25.562;2022-09-02T06:22:04;99186.19;;;28.27;58.38
54900;BME280;40801;41.924;25.562;2022-09-02T06:24:30;99189.97;;;28.36;58.01
54900;BME280;40801;41.924;25.562;2022-09-02T06:26:56;99185.47;;;28.43;57.92
54900;BME280;40801;41.924;25.562;2022-09-02T06:29:23;99188.31;;;28.39;57.55
54900;BME280;40801;41.924;25.562;2022-09-02T06:31:49;99194.84;;;28.49;57.84
54900;BME280;40801;41.924;25.562;2022-09-02T06:34:16;99187.59;;;28.71;56.67
54900;BME280;40801;41.924;25.562;2022-09-02T06:36:44;99189.31;;;28.65;56.75
54900;BME280;40801;41.924;25.562;2022-09-02T06:39:12;99198.38;;;28.85;56.29
54900;BME280;40801;41.924;25.562;2022-09-02T06:41:40;99192.53;;;28.80;55.96
54900;BME280;40801;41.924;25.562;2022-09-02T06:44:07;99203.41;;;29.07;55.86
54900;BME280;40801;41.924;25.562;2022-09-02T06:46:42;99204.22;;;29.69;54.09
54900;BME280;40801;41.924;25.562;2022-09-02T06:49:09;99196.75;;;29.95;53.21
54900;BME280;40801;41.924;25.562;2022-09-02T06:51:41;99206.88;;;30.17;51.27
54900;BME280;40801;41.924;25.562;2022-09-02T06:54:08;99205.38;;;30.55;51.77
54900;BME280;40801;41.924;25.562;2022-09-02T06:56:35;99206.19;;;30.80;50.90
54900;BME280;40801;41.924;25.562;2022-09-02T06:59:01;99210.72;;;30.87;50.00
54900;BME280;40801;41.924;25.562;2022-09-02T07:01:51;99209.72;;;30.43;49.81
54900;BME280;40801;41.924;25.562;2022-09-02T07:04:17;99216.38;;;30.58;49.37
54900;BME280;40801;41.924;25.562;2022-09-02T07:07:03;99205.31;;;30.29;50.46
54900;BME280;40801;41.924;25.562;2022-09-02T07:09:29;99203.53;;;30.23;49.96
54900;BME280;40801;41.924;25.562;2022-09-02T07:11:58;99206.91;;;30.01;50.12
54900;BME280;40801;41.924;25.562;2022-09-02T07:14:25;99201.34;;;29.72;50.10
54900;BME280;40801;41.924;25.562;2022-09-02T07:16:54;99211.88;;;29.65;50.52
54900;BME280;40801;41.924;25.562;2022-09-02T07:19:22;99204.34;;;29.49;50.64
54900;BME280;40801;41.924;25.562;2022-09-02T07:21:48;99217.56;;;29.45;50.86
54900;BME280;40801;41.924;25.562;2022-09-02T07:24:14;99219.38;;;29.35;51.46
54900;BME280;40801;41.924;25.562;2022-09-02T07:26:40;99212.25;;;29.34;51.41
54900;BME280;40801;41.924;25.562;2022-09-02T07:29:06;99219.28;;;29.39;51.21
54900;BME280;40801;41.924;25.562;2022-09-02T07:31:38;99214.63;;;29.52;51.23
54900;BME280;40801;41.924;25.562;2022-09-02T07:34:04;99221.44;;;29.64;50.67
54900;BME280;40801;41.924;25.562;2022-09-02T07:36:32;99219.75;;;29.53;50.94
54900;BME280;40801;41.924;25.562;2022-09-02T07:38:59;99219.41;;;29.51;50.76
54900;BME280;40801;41.924;25.562;2022-09-02T07:41:25;99220.00;;;29.88;51.00
54900;BME280;40801;41.924;25.562;2022-09-02T07:43:51;99213.16;;;30.60;49.69
54900;BME280;40801;41.924;25.562;2022-09-02T07:46:17;99209.41;;;31.04;48.38
54900;BME280;40801;41.924;25.562;2022-09-02T07:48:42;99215.66;;;30.96;47.91
54900;BME280;40801;41.924;25.562;2022-09-02T07:51:08;99216.75;;;30.86;48.26
54900;BME280;40801;41.924;25.562;2022-09-02T07:53:34;99217.75;;;31.04;47.57
54900;BME280;40801;41.924;25.562;2022-09-02T07:56:01;99223.38;;;31.86;47.04
54900;BME280;40801;41.924;25.562;2022-09-02T07:58:27;99211.44;;;32.60;45.22
54900;BME280;40801;41.924;25.562;2022-09-02T08:00:53;99207.06;;;33.40;43.67
54900;BME280;40801;41.924;25.562;2022-09-02T08:03:22;99212.53;;;33.98;42.15
54900;BME280;40801;41.924;25.562;2022-09-02T08:05:48;99208.91;;;34.43;41.11
54900;BME280;40801;41.924;25.562;2022-09-02T08:08:15;99202.19;;;34.50;40.15
54900;BME280;40801;41.924;25.562;2022-09-02T08:10:41;99207.63;;;34.54;40.23
54900;BME280;40801;41.924;25.562;2022-09-02T08:13:07;99213.78;;;34.15;40.29
54900;BME280;40801;41.924;25.562;2022-09-02T08:15:35;99209.13;;;33.67;40.35
54900;BME280;40801;41.924;25.562;2022-09-02T08:18:02;99211.44;;;33.77;39.72
54900;BME280;40801;41.924;25.562;2022-09-02T08:20:28;99207.13;;;33.85;40.39
54900;BME280;40801;41.924;25.562;2022-09-02T08:22:55;99195.84;;;34.31;39.52
54900;BME280;40801;41.924;25.562;2022-09-02T08:25:21;99207.34;;;34.85;38.11
54900;BME280;40801;41.924;25.562;2022-09-02T08:27:46;99203.22;;;35.04;37.92
54900;BME280;40801;41.924;25.562;2022-09-02T08:30:12;99199.78;;;34.67;37.70
54900;BME280;40801;41.924;25.562;2022-09-02T08:32:38;99196.47;;;34.35;37.52
54900;BME280;40801;41.924;25.562;2022-09-02T08:35:05;99202.91;;;33.90;38.20
54900;BME280;40801;41.924;25.562;2022-09-02T08:37:31;99196.84;;;33.64;38.57
54900;BME280;40801;41.924;25.562;2022-09-02T08:39:58;99187.94;;;34.11;38.83
54900;BME280;40801;41.924;25.562;2022-09-02T08:42:35;99189.53;;;34.97;36.99
54900;BME280;40801;41.924;25.562;2022-09-02T08:45:32;99192.22;;;35.15;36.72
54900;BME280;40801;41.924;25.562;2022-09-02T08:48:31;99186.53;;;34.25;37.21
54900;BME280;40801;41.924;25.562;2022-09-02T08:51:09;99177.72;;;33.72;38.37
54900;BME280;40801;41.924;25.562;2022-09-02T08:53:47;99169.19;;;33.39;38.93
54900;BME280;40801;41.924;25.562;2022-09-02T08:56:16;99169.28;;;34.08;37.72
54900;BME280;40801;41.924;25.562;2022-09-02T08:58:44;99165.91;;;33.95;37.25
54900;BME280;40801;41.924;25.562;2022-09-02T09:01:31;99173.06;;;33.41;37.50
54900;BME280;40801;41.924;25.562;2022-09-02T09:18:10;99130.69;;;34.97;36.30
54900;BME280;40801;41.924;25.562;2022-09-02T09:20:31;99121.38;;;34.91;36.20
54900;BME280;40801;41.924;25.562;2022-09-02T09:22:59;99116.56;;;35.68;34.14
54900;BME280;40801;41.924;25.562;2022-09-02T09:25:27;99110.00;;;36.30;33.69
54900;BME280;40801;41.924;25.562;2022-09-02T09:27:56;99106.69;;;36.47;32.79
54900;BME280;40801;41.924;25.562;2022-09-02T09:30:25;99118.91;;;36.29;32.68
54900;BME280;40801;41.924;25.562;2022-09-02T09:32:58;99108.84;;;36.37;32.75
54900;BME280;40801;41.924;25.562;2022-09-02T09:35:25;99106.06;;;37.13;32.21
54900;BME280;40801;41.924;25.562;2022-09-02T09:37:53;99097.25;;;37.46;32.08
54900;BME280;40801;41.924;25.562;2022-09-02T09:45:47;99092.28;;;37.15;31.08
54900;BME280;40801;41.924;25.562;2022-09-02T09:50:45;99083.78;;;37.56;31.19
54900;BME280;40801;41.924;25.562;2022-09-02T09:58:21;99077.09;;;38.42;28.85
54900;BME280;40801;41.924;25.562;2022-09-02T10:00:50;99073.78;;;37.55;29.19
54900;BME280;40801;41.924;25.562;2022-09-02T10:03:24;99071.16;;;37.45;29.71
54900;BME280;40801;41.924;25.562;2022-09-02T10:05:58;99064.25;;;37.98;29.25
54900;BME280;40801;41.924;25.562;2022-09-02T10:08:50;99057.59;;;38.33;29.20
54900;BME280;40801;41.924;25.562;2022-09-02T10:11:31;99073.19;;;37.97;27.86
54900;BME280;40801;41.924;25.562;2022-09-02T10:25:11;99057.78;;;39.20;26.21
54900;BME280;40801;41.924;25.562;2022-09-02T10:27:23;99051.13;;;38.64;26.60
54900;BME280;40801;41.924;25.562;2022-09-02T10:29:58;99055.91;;;38.52;25.93
54900;BME280;40801;41.924;25.562;2022-09-02T10:38:31;99059.44;;;38.84;26.80
54900;BME280;40801;41.924;25.562;2022-09-02T10:46:08;99051.66;;;39.50;26.96
54900;BME280;40801;41.924;25.562;2022-09-02T10:51:14;99050.66;;;40.42;24.28
54900;BME280;40801;41.924;25.562;2022-09-02T10:58:52;99045.97;;;39.27;25.26
54900;BME280;40801;41.924;25.562;2022-09-02T11:01:24;99038.03;;;38.61;26.29
54900;BME280;40801;41.924;25.562;2022-09-02T11:06:25;99016.66;;;38.00;27.43
54900;BME280;40801;41.924;25.562;2022-09-02T11:08:56;99021.69;;;38.22;27.20
54900;BME280;40801;41.924;25.562;2022-09-02T11:16:41;99017.84;;;38.25;27.07
54900;BME280;40801;41.924;25.562;2022-09-02T11:19:29;99021.88;;;38.61;27.29
54900;BME280;40801;41.924;25.562;2022-09-02T11:22:23;99017.13;;;38.30;27.28
54900;BME280;40801;41.924;25.562;2022-09-02T11:24:59;99008.00;;;37.72;27.05
54900;BME280;40801;41.924;25.562;2022-09-02T11:30:18;98993.19;;;37.00;27.82
54900;BME280;40801;41.924;25.562;2022-09-02T11:32:55;98997.34;;;36.43;28.83
54900;BME280;40801;41.924;25.562;2022-09-02T11:35:26;98985.13;;;36.46;28.66
54900;BME280;40801;41.924;25.562;2022-09-02T11:37:56;98984.63;;;36.48;28.52
54900;BME280;40801;41.924;25.562;2022-09-02T11:41:01;98974.56;;;37.02;28.40
54900;BME280;40801;41.924;25.562;2022-09-02T11:43:34;98975.25;;;37.75;26.39
54900;BME280;40801;41.924;25.562;2022-09-02T11:49:04;98961.38;;;39.94;24.15
54900;BME280;40801;41.924;25.562;2022-09-02T11:54:18;98966.91;;;41.38;22.92
54900;BME280;40801;41.924;25.562;2022-09-02T11:56:58;98972.31;;;41.72;22.59
54900;BME280;40801;41.924;25.562;2022-09-02T12:07:58;98965.72;;;42.13;21.89
54900;BME280;40801;41.924;25.562;2022-09-02T12:13:08;98953.84;;;42.76;21.40
54900;BME280;40801;41.924;25.562;2022-09-02T12:15:37;98951.41;;;42.67;21.14
54900;BME280;40801;41.924;25.562;2022-09-02T12:18:10;98944.59;;;42.94;20.18
54900;BME280;40801;41.924;25.562;2022-09-02T12:23:03;98947.44;;;44.04;19.81
54900;BME280;40801;41.924;25.562;2022-09-02T12:28:25;98944.81;;;44.06;19.21
54900;BME280;40801;41.924;25.562;2022-09-02T12:35:55;98943.75;;;42.81;20.00
54900;BME280;40801;41.924;25.562;2022-09-02T12:38:31;98939.94;;;42.35;20.21
54900;BME280;40801;41.924;25.562;2022-09-02T12:49:09;98955.25;;;38.53;26.47
54900;BME280;40801;41.924;25.562;2022-09-02T12:54:47;98945.38;;;37.00;29.37
54900;BME280;40801;41.924;25.562;2022-09-02T12:57:13;98927.91;;;37.16;29.96
54900;BME280;40801;41.924;25.562;2022-09-02T12:59:40;98922.06;;;37.45;29.83
54900;BME280;40801;41.924;25.562;2022-09-02T13:02:35;98925.09;;;37.16;30.41
54900;BME280;40801;41.924;25.562;2022-09-02T13:05:32;98935.22;;;37.02;30.58
54900;BME280;40801;41.924;25.562;2022-09-02T13:16:26;98966.44;;;36.84;32.07
54900;BME280;40801;41.924;25.562;2022-09-02T13:21:57;98999.47;;;36.48;32.02
54900;BME280;40801;41.924;25.562;2022-09-02T13:24:49;99007.50;;;35.17;34.83
54900;BME280;40801;41.924;25.562;2022-09-02T13:30:04;99042.56;;;33.56;37.55
54900;BME280;40801;41.924;25.562;2022-09-02T13:32:31;99032.03;;;33.15;38.69
54900;BME280;40801;41.924;25.562;2022-09-02T13:35:01;99025.91;;;33.71;37.66
54900;BME280;40801;41.924;25.562;2022-09-02T13:39:53;99024.22;;;32.55;39.38
54900;BME280;40801;41.924;25.562;2022-09-02T13:42:22;99010.38;;;32.02;40.17
54900;BME280;40801;41.924;25.562;2022-09-02T13:44:48;99025.91;;;31.72;40.33
54900;BME280;40801;41.924;25.562;2022-09-02T13:47:16;99039.91;;;31.37;42.49
54900;BME280;40801;41.924;25.562;2022-09-02T13:49:45;99023.25;;;30.68;43.62
54900;BME280;40801;41.924;25.562;2022-09-02T13:52:17;99027.28;;;30.29;44.75
54900;BME280;40801;41.924;25.562;2022-09-02T13:54:46;99023.59;;;30.07;45.12
54900;BME280;40801;41.924;25.562;2022-09-02T13:57:17;99033.72;;;30.01;45.74
54900;BME280;40801;41.924;25.562;2022-09-02T13:59:51;99022.91;;;29.36;47.69
54900;BME280;40801;41.924;25.562;2022-09-02T14:04:44;99036.56;;;29.01;48.54
54900;BME280;40801;41.924;25.562;2022-09-02T14:07:09;99052.50;;;29.13;48.06
54900;BME280;40801;41.924;25.562;2022-09-02T14:09:38;99062.00;;;28.99;47.73
54900;BME280;40801;41.924;25.562;2022-09-02T14:12:05;99061.75;;;28.94;47.73
54900;BME280;40801;41.924;25.562;2022-09-02T14:14:31;99058.72;;;28.72;47.67
54900;BME280;40801;41.924;25.562;2022-09-02T14:17:18;99051.34;;;28.65;48.63
54900;BME280;40801;41.924;25.562;2022-09-02T14:19:45;99057.41;;;28.28;48.47
54900;BME280;40801;41.924;25.562;2022-09-02T14:22:29;99071.97;;;28.48;48.48
54900;BME280;40801;41.924;25.562;2022-09-02T14:24:54;99077.00;;;28.37;48.09
54900;BME280;40801;41.924;25.562;2022-09-02T14:27:21;99091.41;;;28.12;48.89
54900;BME280;40801;41.924;25.562;2022-09-02T14:29:54;99092.53;;;28.15;48.88
54900;BME280;40801;41.924;25.562;2022-09-02T14:32:24;99092.31;;;27.89;48.76
54900;BME280;40801;41.924;25.562;2022-09-02T14:37:54;99090.66;;;27.52;49.96
54900;BME280;40801;41.924;25.562;2022-09-02T14:40:37;99078.97;;;27.64;49.96
54900;BME280;40801;41.924;25.562;2022-09-02T14:43:11;99080.28;;;27.56;50.58
54900;BME280;40801;41.924;25.562;2022-09-02T14:45:41;99072.59;;;27.44;50.03
54900;BME280;40801;41.924;25.562;2022-09-02T14:48:15;99068.34;;;27.39;50.40
54900;BME280;40801;41.924;25.562;2022-09-02T14:50:44;99066.09;;;27.34;50.27
54900;BME280;40801;41.924;25.562;2022-09-02T14:53:10;99058.28;;;27.29;50.90
54900;BME280;40801;41.924;25.562;2022-09-02T14:58:11;99075.31;;;26.58;55.61
54900;BME280;40801;41.924;25.562;2022-09-02T15:00:36;99078.66;;;26.72;54.71
54900;BME280;40801;41.924;25.562;2022-09-02T15:03:04;99080.50;;;26.55;55.35
54900;BME280;40801;41.924;25.562;2022-09-02T15:05:29;99083.97;;;26.60;55.43
54900;BME280;40801;41.924;25.562;2022-09-02T15:07:55;99092.50;;;26.45;57.04
54900;BME280;40801;41.924;25.562;2022-09-02T15:10:21;99092.63;;;26.38;58.09